LCRA/AKT METAR and TAF weather

Enter ICAO airport designator
Station Type Date Time Source
LCRA METAR 2020/08/12 17:50 UTC NOAA

LCRA 121750Z 26014KT CAVOK 27/24 Q1006 NOSIG RMK BLU BLU


Station Type Date Time Source
LCRA Decoded METAR 2020/08/12 17:50 UTC NOAA

Akrotiri, Cyprus (LCRA) 34-35N 032-59E 0M
Aug 12, 2020 - 01:50 PM EDT / 2020.08.12 1750 UTC
Wind: from the W (260 degrees) at 16 MPH (14 KT):0
Visibility: greater than 7 mile(s):0
Temperature: 80 F (27 C)
Dew Point: 75 F (24 C)
Relative Humidity: 83%
Pressure (altimeter): 29.71 in. Hg (1006 hPa)
ob: LCRA 121750Z 26014KT CAVOK 27/24 Q1006 NOSIG RMK BLU BLU
cycle: 18

Station Type Date Time Source
LCRA TAF 2020/08/12 18:42 UTC NOAA

TAF TAF LCRA 121639Z 1218/1312 25015KT 9999 FEW050 PROB40
TEMPO 1218/1219 26015G25KT
BECMG 1301/1304 07005KT PROB30
TEMPO 1303/1306 4000 BR

Example: see airport list